Flight Track Log - Related Links

Times and Time Zones

All times are in EDT time to prevent confusion due to time zone crossing. See the N6319G flight status page for this flight to view local times or setup timezone preferences in your user account.


Time Position Orientation Groundspeed Altitude Reporting Facility
EDT Latitude Longitude Course Direction KTS MPH feet Rate Location/Type
Mon 03:45:44 PM 42.4114 -90.7031 163° South 77 89 1,900  Level Chicago Center
Mon 03:46:46 PM 42.3914 -90.7125 199° South 94 108 2,700 816 Climbing Chicago Center
Mon 03:47:49 PM 42.3744 -90.6961 144° Southeast 79 91 3,600 816 Climbing Chicago Center
Mon 03:48:51 PM 42.3581 -90.6881 160° South 70 81 4,400 677 Climbing Chicago Center
Mon 03:49:00 PM 42.4020 -90.7095 166° South  Level Estimated
Mon 03:49:53 PM 42.3386 -90.6833 170° South 68 78 5,000  Level Chicago Center
Mon 03:50:00 PM 42.4020 -90.7095 166° South  Level Estimated
Mon 03:50:55 PM 42.3086 -90.6747 168° South 79 91 5,000  Level Chicago Center
Mon 03:51:00 PM 42.4020 -90.7095 163° South  Level Estimated
Mon 03:51:57 PM 42.2828 -90.6658 166° South 89 102 5,000  Level Chicago Center
Mon 03:52:59 PM 42.2564 -90.6558 164° South 94 108 5,000  Level Chicago Center
Mon 03:54:01 PM 42.2322 -90.6483 167° South 93 107 5,000  Level Chicago Center
Mon 03:55:03 PM 42.2075 -90.6394 165° South 92 106 5,000  Level Chicago Center
Mon 03:56:05 PM 42.1775 -90.6283 165° South 93 107 5,000  Level Chicago Center
Mon 03:57:07 PM 42.1522 -90.6200 166° South 93 107 5,000  Level Chicago Center
Mon 03:58:10 PM 42.1261 -90.6117 167° South 94 108 5,000  Level Chicago Center
Mon 03:59:12 PM 42.1006 -90.6017 164° South 96 110 5,000  Level Chicago Center
Mon 04:00:14 PM 42.0756 -90.5914 163° South 96 110 5,000  Level Chicago Center
Mon 04:01:16 PM 42.0456 -90.5786 162° South 96 110 5,000  Level Chicago Center
Mon 04:02:18 PM 42.0189 -90.5706 167° South 96 110 5,000  Level Chicago Center
Mon 04:03:20 PM 41.9933 -90.5614 165° South 97 112 5,000  Level Chicago Center
Mon 04:04:23 PM 41.9669 -90.5547 169° South 96 110 5,000 -240 Level Chicago Center
Mon 04:05:25 PM 41.9408 -90.5450 165° South 98 113 4,500 -581 Descending Chicago Center
Mon 04:06:27 PM 41.9089 -90.5378 170° South 97 112 3,800 -581 Descending Chicago Center
Mon 04:07:29 PM 41.8783 -90.5381 180° South 98 113 3,300 -99 Descending Chicago Center
Mon 04:09:00 PM 41.8655 -90.4919 110° East  Level FlightAware Approximate
Mon 04:15:33 PM 41.6933 -90.4383 332° Northwest 90 104 2,900  Level Chicago Center
Mon 04:16:00 PM 41.8473 -90.3385 332° Northwest  Level FlightAware Approximate
Mon 04:16:35 PM 41.7144 -90.4208 32° Northeast 88 101 3,000  Level Chicago Center
Mon 04:17:00 PM 41.8687 -90.3537 332° Northwest  Level FlightAware Approximate
Mon 04:17:37 PM 41.7392 -90.4050 26° Northeast 89 102 3,000  Level Chicago Center
Mon 04:18:00 PM 41.8900 -90.3689 332° Northwest  Level FlightAware Approximate
Mon 04:19:00 PM 41.7690 -90.4125 349° North  Level FlightAware Approximate
Mon 04:19:00 PM 41.9114 -90.3842 332° Northwest  Level FlightAware Approximate
Mon 04:20:00 PM 41.9327 -90.3994 332° Northwest  Level FlightAware Approximate
Mon 04:25:54 PM 41.8953 -90.3489 338° Northwest 94 108 4,000  Level Chicago Center
Mon 04:26:00 PM 41.9198 -90.4504 349° North  Level FlightAware Approximate
Mon 04:26:56 PM 41.9214 -90.3656 335° Northwest 271 312 4,000  Level Chicago Center
Mon 04:27:00 PM 41.9413 -90.4559 349° North  Level FlightAware Approximate
Mon 04:27:58 PM 41.9489 -90.3878 329° Northwest 125 144 4,100  Level Chicago Center
Mon 04:28:00 PM 41.9629 -90.4613 349° North  Level FlightAware Approximate
Mon 04:29:00 PM 41.9845 -90.4668 349° North  Level FlightAware Approximate
Mon 04:29:00 PM 41.9831 -90.3972 348° North 124 143 4,000  Level Chicago Center
Mon 04:30:00 PM 42.0046 -90.4784 337° Northwest  Level Estimated
Mon 04:30:02 PM 42.0111 -90.4208 328° Northwest 122 140 3,900  Level Chicago Center
Mon 04:31:00 PM 42.0295 -90.4921 338° Northwest  Level FlightAware Approximate
Mon 04:31:04 PM 42.0406 -90.4425 331° Northwest 122 140 4,000  Level Chicago Center
Mon 04:32:07 PM 42.0747 -90.4664 333° Northwest 119 137 4,000  Level Chicago Center
Mon 04:33:09 PM 42.1042 -90.4847 335° Northwest 118 136 4,000 -48 Level Chicago Center
Mon 04:34:11 PM 42.1333 -90.5064 331° Northwest 119 137 3,900 -48 Descending Chicago Center
Mon 04:35:13 PM 42.1500 -90.5469 299° West 121 139 3,900 -194 Level Chicago Center
Mon 04:36:15 PM 42.1597 -90.5900 287° West 121 139 3,500 -387 Descending Chicago Center
Mon 04:37:17 PM 42.1733 -90.6383 291° West 118 136 3,100 -290 Descending Chicago Center
Mon 04:38:19 PM 42.1825 -90.6786 287° West 115 132 2,900 -48 Descending Chicago Center
Mon 04:39:21 PM 42.2017 -90.7069 312° West 109 125 3,000 48 Climbing Chicago Center
Mon 04:40:23 PM 42.2308 -90.7147 349° North 107 123 3,000 -48 Level Chicago Center
Mon 04:41:25 PM 42.2594 -90.7125 North 95 109 2,900  Descending Chicago Center
Mon 04:42:27 PM 42.2836 -90.7136 358° North 90 104 3,000 -97 Climbing Chicago Center
Mon 04:43:29 PM 42.3092 -90.7131 North 90 104 2,700 -384 Descending Chicago Center
Mon 04:44:32 PM 42.3358 -90.7122 North 93 107 2,200 -384 Descending Chicago Center
Mon 04:45:34 PM 42.3631 -90.7114 North 93 107 1,900 -290 Descending Chicago Center
Mon 04:47:00 PM 42.4000 -90.7000 346° North  Level FlightAware Approximate

Login

Don't have an account? Register now (free) for customized features, flight alerts, and more!